Time;durP1;ratioP1;P1;durP2;ratioP2;P2;SDS_P1;SDS_P2;PMS_P1;PMS_P2;Temp;Humidity;BMP_temperature;BMP_pressure;BME280_temperature;BME280_humidity;BME280_pressure;Samples;Min_cycle;Max_cycle;Signal;HPM_P1;HPM_P2
2022/02/21 00:00:21;;;;;;;8.17;4.70;;;5.40;99.90;;;;;;5036615;28;20187;-85
2022/02/21 00:02:50;;;;;;;11.37;4.60;;;5.50;99.90;;;;;;5036515;28;20633;-84
2022/02/21 00:05:17;;;;;;;8.00;4.67;;;5.40;99.90;;;;;;5036777;28;20195;-84
2022/02/21 00:07:43;;;;;;;10.50;4.23;;;5.50;99.90;;;;;;5036532;28;20184;-84
2022/02/21 00:10:11;;;;;;;7.73;3.70;;;6.00;99.90;;;;;;5054320;28;20175;-84
2022/02/21 00:12:37;;;;;;;10.23;4.47;;;5.50;99.90;;;;;;5036681;28;20349;-84
2022/02/21 00:15:04;;;;;;;12.17;4.57;;;;;;;;;;5036360;28;20191;-84
2022/02/21 00:17:30;;;;;;;10.20;4.40;;;5.40;99.90;;;;;;5036451;28;20188;-84
2022/02/21 00:19:56;;;;;;;6.97;4.17;;;5.60;99.90;;;;;;5036262;28;20180;-84
2022/02/21 00:22:22;;;;;;;10.67;4.37;;;5.50;99.90;;;;;;5054307;28;20202;-84
2022/02/21 00:24:48;;;;;;;7.87;4.00;;;5.70;99.90;;;;;;5035927;28;20244;-85
2022/02/21 00:27:13;;;;;;;8.00;3.93;;;6.00;99.90;;;;;;5036297;28;20191;-84
2022/02/21 00:29:39;;;;;;;12.20;4.23;;;5.60;99.90;;;;;;5019810;28;20217;-84
2022/02/21 00:32:05;;;;;;;6.40;4.07;;;5.70;99.90;;;;;;5054163;28;20627;-84
2022/02/21 00:34:31;;;;;;;7.90;4.03;;;;;;;;;;5020084;28;20172;-84
2022/02/21 00:36:57;;;;;;;9.33;4.50;;;5.70;99.90;;;;;;5019783;28;20187;-84
2022/02/21 00:39:23;;;;;;;6.63;3.40;;;;;;;;;;5036012;28;20625;-84
2022/02/21 00:41:49;;;;;;;6.73;4.33;;;5.70;99.90;;;;;;5054937;28;20539;-88
2022/02/21 00:44:14;;;;;;;9.90;3.63;;;5.60;99.90;;;;;;5037351;28;20187;-84
2022/02/21 00:46:40;;;;;;;8.67;3.83;;;5.50;99.90;;;;;;5033552;28;20191;-84
2022/02/21 00:49:06;;;;;;;9.97;4.40;;;5.60;99.90;;;;;;5061176;28;20175;-87
2022/02/21 00:51:32;;;;;;;8.40;3.73;;;5.50;99.90;;;;;;5046119;28;20180;-84
2022/02/21 00:53:58;;;;;;;9.10;3.57;;;;;;;;;;5035549;28;20179;-84
2022/02/21 00:56:23;;;;;;;9.73;4.07;;;5.50;99.90;;;;;;5035950;28;20321;-84
2022/02/21 00:58:49;;;;;;;9.40;3.80;;;5.40;99.90;;;;;;5019505;28;20620;-84
2022/02/21 01:01:15;;;;;;;8.13;3.83;;;5.70;99.90;;;;;;5019240;28;20564;-84
2022/02/21 01:03:42;;;;;;;7.07;3.77;;;5.10;99.90;;;;;;5019516;28;20183;-84
2022/02/21 01:06:07;;;;;;;8.90;4.03;;;5.30;99.90;;;;;;5035529;28;20337;-84
2022/02/21 01:08:33;;;;;;;6.93;3.40;;;5.30;99.90;;;;;;5019259;28;20241;-84
2022/02/21 01:10:59;;;;;;;8.37;3.80;;;5.40;99.90;;;;;;5035455;28;20176;-84
2022/02/21 01:13:24;;;;;;;6.53;3.57;;;5.40;99.90;;;;;;5053425;28;20208;-83
2022/02/21 01:15:53;;;;;;;5.03;3.10;;;5.30;99.90;;;;;;5053100;28;20174;-84
2022/02/21 01:18:19;;;;;;;4.07;2.60;;;5.70;99.90;;;;;;5053408;28;20240;-84
2022/02/21 01:20:45;;;;;;;5.97;3.10;;;;;;;;;;5053145;28;20176;-84
2022/02/21 01:23:11;;;;;;;4.93;3.40;;;5.40;99.90;;;;;;5035033;28;20275;-84
2022/02/21 01:25:36;;;;;;;5.07;3.60;;;5.40;99.90;;;;;;5052786;28;20676;-84
2022/02/21 01:28:02;;;;;;;5.80;3.23;;;5.40;99.90;;;;;;5052549;28;20581;-85
2022/02/21 01:30:28;;;;;;;8.30;3.37;;;5.40;99.90;;;;;;5018866;28;20183;-85
2022/02/21 01:32:53;;;;;;;5.97;3.27;;;5.40;99.90;;;;;;5002427;28;20219;-85
2022/02/21 01:35:20;;;;;;;6.73;3.67;;;;;;;;;;5035224;28;20176;-85
2022/02/21 01:37:45;;;;;;;6.10;3.30;;;5.30;99.90;;;;;;5053082;28;20218;-84
2022/02/21 01:40:11;;;;;;;4.63;3.07;;;5.40;99.90;;;;;;5035176;28;20599;-84
2022/02/21 01:42:37;;;;;;;6.67;3.43;;;5.40;99.90;;;;;;5034957;28;20201;-84
2022/02/21 01:45:04;;;;;;;5.60;2.97;;;5.40;99.90;;;;;;5034862;28;20320;-84
2022/02/21 01:47:29;;;;;;;5.50;3.17;;;5.50;99.90;;;;;;5035184;28;20204;-84
2022/02/21 01:49:55;;;;;;;5.70;2.90;;;5.50;99.90;;;;;;5034973;28;20702;-84
2022/02/21 01:52:21;;;;;;;4.63;2.90;;;5.50;99.90;;;;;;5052808;28;20218;-84
2022/02/21 01:54:47;;;;;;;7.27;2.83;;;5.50;99.90;;;;;;5052649;28;20555;-84
2022/02/21 01:57:13;;;;;;;5.47;2.90;;;5.50;99.90;;;;;;5052698;28;20184;-84
2022/02/21 01:59:40;;;;;;;4.60;2.40;;;5.50;99.90;;;;;;5052965;28;20313;-84
2022/02/21 02:02:07;;;;;;;4.33;2.90;;;5.60;99.90;;;;;;5052820;28;20183;-85
2022/02/21 02:04:33;;;;;;;6.13;2.63;;;;;;;;;;5034902;28;20180;-84
2022/02/21 02:07:00;;;;;;;5.80;2.80;;;5.60;99.90;;;;;;5052734;28;20617;-84
2022/02/21 02:09:26;;;;;;;5.57;2.57;;;;;;;;;;5034702;28;20654;-84
2022/02/21 02:11:52;;;;;;;4.20;2.80;;;5.70;99.90;;;;;;5052682;28;20212;-84
2022/02/21 02:14:34;;;;;;;5.53;2.03;;;5.70;99.90;;;;;;5034891;28;20547;-84
2022/02/21 02:17:09;;;;;;;3.63;2.30;;;5.80;99.90;;;;;;5035332;28;20184;-84
2022/02/21 02:19:36;;;;;;;3.30;2.50;;;5.70;99.90;;;;;;5052705;28;20171;-84
2022/02/21 02:22:21;;;;;;;4.27;2.50;;;5.70;99.90;;;;;;5052549;28;20185;-84
2022/02/21 02:24:53;;;;;;;4.13;2.37;;;5.70;99.90;;;;;;5035004;28;20238;-84
2022/02/21 02:27:20;;;;;;;5.63;2.33;;;5.80;99.90;;;;;;5034754;28;20180;-85
2022/02/21 02:29:49;;;;;;;6.90;2.70;;;6.10;99.90;;;;;;5034622;28;20666;-85
2022/02/21 02:32:15;;;;;;;3.77;2.00;;;;;;;;;;5034536;28;20207;-85
2022/02/21 02:34:43;;;;;;;6.07;2.60;;;6.00;99.90;;;;;;5034564;28;20191;-85
2022/02/21 02:37:09;;;;;;;5.47;2.40;;;6.00;99.90;;;;;;5017866;28;20180;-85
2022/02/21 02:39:35;;;;;;;13.43;9.57;;;6.00;99.90;;;;;;5034516;28;20197;-84
2022/02/21 02:42:01;;;;;;;7.07;4.67;;;;;;;;;;5056015;28;20700;-84
2022/02/21 02:44:27;;;;;;;16.27;8.50;;;6.00;99.90;;;;;;5037768;28;20199;-84
2022/02/21 02:46:53;;;;;;;5.93;3.67;;;6.10;99.90;;;;;;5038057;28;20180;-85
2022/02/21 02:49:18;;;;;;;7.63;3.93;;;6.10;99.90;;;;;;5038090;28;20532;-85
2022/02/21 02:51:44;;;;;;;41.40;23.27;;;6.10;99.90;;;;;;5056033;28;20215;-84
2022/02/21 02:54:11;;;;;;;8.13;3.90;;;6.10;99.90;;;;;;5037497;28;20191;-85
2022/02/21 02:56:39;;;;;;;5.17;2.33;;;6.20;99.90;;;;;;5055687;28;20180;-84
2022/02/21 02:59:05;;;;;;;6.17;3.63;;;6.20;99.90;;;;;;5055548;28;20514;-84
2022/02/21 03:01:31;;;;;;;6.30;2.77;;;6.20;99.90;;;;;;5037959;28;20180;-84
2022/02/21 03:03:56;;;;;;;7.17;4.40;;;6.30;99.90;;;;;;5037511;28;20190;-84
2022/02/21 03:06:22;;;;;;;13.67;7.77;;;6.30;99.90;;;;;;5055518;28;20209;-85
2022/02/21 03:08:48;;;;;;;9.60;3.90;;;6.60;99.90;;;;;;5021282;28;20184;-84
2022/02/21 03:11:13;;;;;;;14.77;6.13;;;6.30;99.90;;;;;;5037324;28;20180;-84
2022/02/21 03:13:40;;;;;;;8.80;2.90;;;6.30;99.90;;;;;;5055463;28;20219;-85
2022/02/21 03:16:06;;;;;;;15.17;3.70;;;6.30;99.90;;;;;;5055480;28;20621;-84
2022/02/21 03:18:32;;;;;;;5.97;3.13;;;6.30;99.90;;;;;;5037366;28;20183;-85
2022/02/21 03:20:58;;;;;;;6.03;3.40;;;6.30;99.90;;;;;;5055301;28;20176;-84
2022/02/21 03:23:24;;;;;;;4.97;2.20;;;6.30;99.90;;;;;;5037536;28;20549;-84
2022/02/21 03:25:50;;;;;;;5.17;2.87;;;6.30;99.90;;;;;;5020623;28;20239;-84
2022/02/21 03:28:16;;;;;;;10.70;3.63;;;;;;;;;;5055263;28;20198;-84
2022/02/21 03:30:42;;;;;;;6.10;3.20;;;6.30;99.90;;;;;;5020711;28;20210;-84
2022/02/21 03:33:08;;;;;;;4.87;2.73;;;;;;;;;;5037011;28;20702;-84
2022/02/21 03:35:35;;;;;;;5.50;3.00;;;6.30;99.90;;;;;;5054935;28;20176;-84
2022/02/21 03:38:01;;;;;;;4.27;2.80;;;;;;;;;;5037186;28;20179;-83
2022/02/21 03:40:27;;;;;;;4.40;2.53;;;6.30;99.90;;;;;;5054692;28;20184;-84
2022/02/21 03:42:53;;;;;;;3.23;2.60;;;6.30;99.90;;;;;;5037589;28;20267;-84
2022/02/21 03:45:25;;;;;;;4.07;2.40;;;6.60;99.90;;;;;;5020336;28;20690;-84
2022/02/21 03:47:51;;;;;;;4.77;2.30;;;;;;;;;;5037315;28;20286;-84
2022/02/21 03:50:16;;;;;;;4.10;2.20;;;4.20;99.90;;;;;;5054664;28;20250;-84
2022/02/21 03:52:42;;;;;;;4.40;3.00;;;6.20;99.90;;;;;;5036477;28;20727;-84
2022/02/21 03:55:09;;;;;;;5.27;2.80;;;6.10;99.90;;;;;;5054566;28;20690;-84
2022/02/21 03:57:35;;;;;;;3.60;2.03;;;6.10;99.90;;;;;;5036933;28;20176;-84
2022/02/21 04:00:02;;;;;;;4.27;2.37;;;6.10;99.90;;;;;;5036807;28;20203;-85
2022/02/21 04:02:28;;;;;;;4.23;2.00;;;;;;;;;;5054095;28;20191;-83
2022/02/21 04:04:54;;;;;;;5.50;3.20;;;6.00;99.90;;;;;;5036875;28;20188;-83
2022/02/21 04:07:19;;;;;;;3.10;2.00;;;6.00;99.90;;;;;;5036666;28;20183;-84
2022/02/21 04:09:45;;;;;;;4.47;2.40;;;6.00;99.90;;;;;;5020182;28;20544;-84
2022/02/21 04:12:11;;;;;;;3.20;2.43;;;6.10;99.90;;;;;;5054148;28;20288;-84
2022/02/21 04:14:37;;;;;;;3.60;2.30;;;6.00;99.90;;;;;;5020149;28;20282;-83
2022/02/21 04:17:03;;;;;;;4.93;2.13;;;5.90;99.90;;;;;;5036349;28;20267;-84
2022/02/21 04:19:28;;;;;;;3.20;1.83;;;5.90;99.90;;;;;;5020141;28;20180;-84
2022/02/21 04:21:56;;;;;;;3.77;1.80;;;;;;;;;;5036841;28;20188;-84
2022/02/21 04:24:22;;;;;;;1.53;1.40;;;5.90;99.90;;;;;;5037216;28;20242;-84
2022/02/21 04:26:47;;;;;;;5.17;2.57;;;5.90;99.90;;;;;;5055977;28;20184;-83
2022/02/21 04:29:13;;;;;;;3.40;2.17;;;5.90;99.90;;;;;;5055856;28;20195;-83
2022/02/21 04:31:39;;;;;;;15.40;9.70;;;5.90;99.90;;;;;;5061302;28;20168;-84
2022/02/21 04:34:04;;;;;;;3.97;2.33;;;5.80;99.90;;;;;;5043951;28;20180;-83
2022/02/21 04:36:34;;;;;;;3.50;2.57;;;;;;;;;;5058822;28;20216;-85
2022/02/21 04:38:59;;;;;;;6.97;3.50;;;5.90;99.90;;;;;;5061530;28;20164;-84
2022/02/21 04:41:25;;;;;;;12.30;6.83;;;5.90;99.90;;;;;;5028415;28;20171;-85
2022/02/21 04:43:53;;;;;;;10.47;6.57;;;5.90;99.90;;;;;;5078455;28;20170;-84
2022/02/21 04:46:19;;;;;;;5.53;3.53;;;5.80;99.90;;;;;;5078437;28;20156;-84
2022/02/21 04:48:45;;;;;;;7.60;4.90;;;5.80;99.90;;;;;;5061081;28;20180;-85
2022/02/21 04:51:11;;;;;;;26.10;13.03;;;5.80;99.90;;;;;;5077865;28;20179;-84
2022/02/21 04:53:37;;;;;;;12.20;7.23;;;5.90;99.90;;;;;;5060899;28;20232;-84
2022/02/21 04:56:02;;;;;;;12.80;7.17;;;5.90;99.90;;;;;;5061076;28;20198;-83
2022/02/21 04:58:30;;;;;;;17.13;10.47;;;5.80;99.90;;;;;;5060873;28;20164;-90
2022/02/21 05:00:56;;;;;;;15.23;9.00;;;;;;;;;;5057515;28;20641;-84
2022/02/21 05:03:22;;;;;;;2.20;2.00;;;5.90;99.90;;;;;;5035209;28;20183;-83
2022/02/21 05:05:48;;;;;;;6.10;4.07;;;5.80;99.90;;;;;;5035598;28;20666;-84
2022/02/21 05:08:14;;;;;;;13.37;5.87;;;;;;;;;;5019261;28;20184;-83
2022/02/21 05:10:40;;;;;;;10.90;5.63;;;5.80;99.90;;;;;;5053166;28;20209;-84
2022/02/21 05:13:05;;;;;;;4.23;2.47;;;5.80;99.90;;;;;;5053258;28;20231;-83
2022/02/21 05:15:31;;;;;;;4.53;2.37;;;5.90;99.90;;;;;;5035654;28;20183;-84
2022/02/21 05:17:57;;;;;;;8.73;5.23;;;5.90;99.90;;;;;;5035462;28;20206;-84
2022/02/21 05:20:23;;;;;;;5.03;2.93;;;5.80;99.90;;;;;;5052992;28;20226;-83
2022/02/21 05:22:48;;;;;;;7.87;4.40;;;5.80;99.90;;;;;;5052588;28;20210;-84
2022/02/21 05:25:14;;;;;;;7.23;3.33;;;5.80;99.90;;;;;;5015951;28;20231;-84
2022/02/21 05:27:41;;;;;;;37.63;14.97;;;5.80;99.90;;;;;;5018803;28;20179;-85
2022/02/21 05:30:07;;;;;;;13.13;5.57;;;5.80;99.90;;;;;;5018157;28;20218;-84
2022/02/21 05:32:36;;;;;;;2.77;2.00;;;5.80;99.90;;;;;;5035029;28;20207;-84
2022/02/21 05:35:02;;;;;;;17.00;7.97;;;5.80;99.90;;;;;;5034995;28;20647;-84
2022/02/21 05:37:28;;;;;;;6.40;3.00;;;5.80;99.90;;;;;;5035053;28;20665;-84
2022/02/21 05:39:54;;;;;;;12.50;5.90;;;;;;;;;;5052542;28;20176;-84
2022/02/21 05:42:21;;;;;;;4.33;2.73;;;5.80;99.90;;;;;;5018353;28;20183;-84
2022/02/21 05:44:46;;;;;;;4.17;2.40;;;5.70;99.90;;;;;;5035156;28;20195;-85
2022/02/21 05:47:12;;;;;;;6.00;2.87;;;5.80;99.90;;;;;;5052885;28;20180;-84
2022/02/21 05:49:38;;;;;;;2.00;1.63;;;5.80;99.90;;;;;;5035591;28;20220;-84
2022/02/21 05:52:04;;;;;;;9.20;4.00;;;5.80;99.90;;;;;;5034698;28;20286;-84
2022/02/21 05:54:30;;;;;;;5.77;2.90;;;5.80;99.90;;;;;;5052520;28;20180;-84
2022/02/21 05:56:56;;;;;;;7.00;2.20;;;5.80;99.90;;;;;;5052796;28;20172;-83
2022/02/21 05:59:22;;;;;;;7.20;3.77;;;5.90;99.90;;;;;;5034915;28;20230;-83
2022/02/21 06:01:48;;;;;;;3.00;2.23;;;5.80;99.90;;;;;;5033850;28;20196;-83
2022/02/21 06:04:13;;;;;;;2.67;2.00;;;5.80;99.90;;;;;;5047350;28;20191;-82
2022/02/21 06:06:39;;;;;;;5.53;2.40;;;5.70;99.90;;;;;;5015554;28;20721;-84
2022/02/21 06:09:09;;;;;;;5.40;2.73;;;5.70;99.90;;;;;;5028919;28;20196;-83
2022/02/21 06:11:35;;;;;;;2.30;1.97;;;5.70;99.90;;;;;;5029422;28;20594;-83
2022/02/21 06:14:00;;;;;;;4.97;2.27;;;5.60;99.90;;;;;;5028591;28;20184;-82
2022/02/21 06:16:26;;;;;;;3.97;2.30;;;;;;;;;;5051096;28;20977;-83
2022/02/21 06:18:52;;;;;;;2.73;1.87;;;5.60;99.90;;;;;;5051004;28;20261;-84
2022/02/21 06:21:18;;;;;;;6.40;3.50;;;5.60;99.90;;;;;;5051717;28;20234;-82
2022/02/21 06:23:44;;;;;;;5.87;2.97;;;5.60;99.90;;;;;;5032494;28;20204;-82
2022/02/21 06:26:10;;;;;;;4.97;2.33;;;;;;;;;;5002137;28;20239;-83
2022/02/21 06:28:36;;;;;;;3.40;2.17;;;5.60;99.90;;;;;;5050900;28;20176;-83
2022/02/21 06:31:03;;;;;;;9.87;5.17;;;;;;;;;;5013758;28;20715;-82
2022/02/21 06:33:29;;;;;;;5.47;2.90;;;5.60;99.90;;;;;;5031874;28;20226;-82
2022/02/21 06:35:57;;;;;;;6.77;2.60;;;;;;;;;;5053380;28;20200;-82
2022/02/21 06:38:23;;;;;;;5.67;3.67;;;;;;;;;;5034782;28;20195;-86
2022/02/21 06:40:48;;;;;;;4.60;2.63;;;5.50;99.90;;;;;;5033039;28;20192;-84
2022/02/21 06:43:16;;;;;;;6.07;3.00;;;5.60;99.90;;;;;;5015877;28;20253;-83
2022/02/21 06:45:42;;;;;;;11.20;5.03;;;5.50;99.90;;;;;;5032639;28;20188;-84
2022/02/21 06:48:07;;;;;;;6.67;3.53;;;5.50;99.90;;;;;;5032711;28;20309;-85
2022/02/21 06:50:34;;;;;;;9.43;3.13;;;;;;;;;;5028693;28;20227;-86
2022/02/21 06:52:59;;;;;;;7.90;3.17;;;5.50;99.90;;;;;;5015253;28;20212;-85
2022/02/21 06:55:25;;;;;;;4.83;2.57;;;;;;;;;;5017595;28;20540;-85
2022/02/21 06:57:52;;;;;;;4.63;2.77;;;5.50;99.90;;;;;;5033381;28;20198;-85
2022/02/21 07:00:18;;;;;;;5.33;2.93;;;5.50;99.90;;;;;;5034175;28;20283;-85
2022/02/21 07:02:44;;;;;;;9.10;4.13;;;5.50;99.90;;;;;;5041503;28;20276;-84
2022/02/21 07:05:10;;;;;;;5.73;3.60;;;5.40;99.90;;;;;;5035025;28;20192;-84
2022/02/21 07:07:36;;;;;;;7.33;2.97;;;5.50;99.90;;;;;;5017981;28;20194;-85
2022/02/21 07:10:03;;;;;;;7.20;3.47;;;5.50;99.90;;;;;;5036494;28;20200;-85
2022/02/21 07:12:29;;;;;;;7.80;4.00;;;;;;;;;;5047054;28;20227;-84
2022/02/21 07:14:55;;;;;;;4.90;3.27;;;5.50;99.90;;;;;;5030840;28;20192;-91
2022/02/21 07:17:21;;;;;;;10.47;4.93;;;5.50;99.90;;;;;;5048616;28;20591;-85
2022/02/21 07:19:46;;;;;;;11.30;5.57;;;5.60;99.90;;;;;;5036142;28;20211;-85
2022/02/21 07:22:12;;;;;;;9.60;4.60;;;5.60;99.90;;;;;;5036270;28;20219;-85
2022/02/21 07:24:38;;;;;;;10.43;5.30;;;5.60;99.90;;;;;;5035532;28;20227;-85
2022/02/21 07:27:04;;;;;;;14.67;5.67;;;5.60;99.90;;;;;;5053037;28;20184;-85
2022/02/21 07:29:32;;;;;;;7.47;4.60;;;5.60;99.90;;;;;;5017924;28;20545;-85
2022/02/21 07:31:58;;;;;;;9.77;4.40;;;;;;;;;;5034560;28;20303;-84
2022/02/21 07:34:24;;;;;;;12.77;6.10;;;5.60;99.90;;;;;;5024708;28;20596;-83
2022/02/21 07:36:49;;;;;;;7.83;4.20;;;5.60;99.90;;;;;;5033772;28;20219;-84
2022/02/21 07:39:17;;;;;;;8.13;4.70;;;5.60;99.90;;;;;;5024273;28;20276;-84
2022/02/21 07:41:43;;;;;;;6.57;3.70;;;5.70;99.90;;;;;;5010163;28;20181;-88
2022/02/21 07:44:10;;;;;;;9.17;4.30;;;5.70;99.90;;;;;;5044622;28;20673;-84
2022/02/21 07:46:37;;;;;;;5.27;3.37;;;5.70;99.90;;;;;;5037501;28;20291;-85
2022/02/21 07:49:05;;;;;;;5.73;3.70;;;5.70;99.90;;;;;;5029506;28;20199;-84
2022/02/21 07:51:59;;;;;;;;;;;;;;;;;;;;;
2022/02/21 07:54:26;;;;;;;4.53;2.77;;;;;;;;;;5007160;28;20211;-85
2022/02/21 07:56:52;;;;;;;3.47;2.47;;;;;;;;;;5030733;28;20233;-86
2022/02/21 07:59:18;;;;;;;5.53;3.23;;;;;;;;;;5027973;28;20195;-85
2022/02/21 08:01:44;;;;;;;7.73;4.60;;;;;;;;;;5026316;28;20180;-84
2022/02/21 08:04:09;;;;;;;4.90;3.20;;;6.00;99.90;;;;;;5022743;28;20189;-85
2022/02/21 08:06:35;;;;;;;7.13;2.73;;;6.10;99.90;;;;;;5006065;28;20242;-85
2022/02/21 08:09:01;;;;;;;7.07;3.23;;;6.10;99.90;;;;;;5018320;28;20215;-85
2022/02/21 08:11:27;;;;;;;6.03;2.87;;;;;;;;;;5030275;28;20202;-84
2022/02/21 08:13:54;;;;;;;5.30;3.33;;;;;;;;;;5012297;28;20220;-83
2022/02/21 08:16:21;;;;;;;8.20;3.90;;;5.90;99.90;;;;;;5022408;28;20200;-85
2022/02/21 08:18:47;;;;;;;6.23;3.40;;;;;;;;;;5008266;28;20185;-88
2022/02/21 08:21:13;;;;;;;6.93;3.30;;;6.10;99.90;;;;;;5023130;28;20195;-86
2022/02/21 08:23:39;;;;;;;4.23;3.00;;;;;;;;;;5051206;28;20195;-85
2022/02/21 08:26:04;;;;;;;6.40;3.27;;;6.20;99.90;;;;;;5028082;28;20235;-86
2022/02/21 08:28:30;;;;;;;5.40;3.70;;;6.10;99.90;;;;;;5015901;28;20184;-85
2022/02/21 08:30:56;;;;;;;7.60;3.40;;;6.10;99.90;;;;;;5034422;28;20180;-86
2022/02/21 08:33:21;;;;;;;4.97;3.40;;;6.60;99.90;;;;;;5017491;28;20216;-85
2022/02/21 08:35:47;;;;;;;10.67;3.40;;;;;;;;;;5017028;28;20184;-84
2022/02/21 08:38:13;;;;;;;4.43;2.70;;;;;;;;;;5034025;28;20582;-85
2022/02/21 08:40:40;;;;;;;6.67;3.10;;;6.00;99.90;;;;;;5018314;28;20230;-84
2022/02/21 08:43:06;;;;;;;6.00;3.73;;;;;;;;;;5032308;28;20672;-85
2022/02/21 08:45:32;;;;;;;5.20;3.43;;;6.10;99.90;;;;;;5034737;28;20186;-85
2022/02/21 08:47:58;;;;;;;9.83;4.50;;;;;;;;;;5033316;28;20180;-85
2022/02/21 08:50:24;;;;;;;5.70;2.93;;;;;;;;;;5015271;28;20525;-85
2022/02/21 08:52:50;;;;;;;10.23;5.10;;;;;;;;;;5034487;28;20215;-85
2022/02/21 08:55:16;;;;;;;9.20;4.90;;;6.10;99.90;;;;;;5034117;28;20180;-85
2022/02/21 08:57:43;;;;;;;6.53;4.27;;;6.10;99.90;;;;;;5034762;28;20195;-84
2022/02/21 09:00:10;;;;;;;10.87;5.43;;;6.10;99.90;;;;;;5035130;28;20317;-85
2022/02/21 09:02:36;;;;;;;7.07;4.60;;;6.20;99.90;;;;;;5034883;28;20199;-85
2022/02/21 09:05:02;;;;;;;8.90;5.07;;;6.20;99.90;;;;;;5047623;28;20184;-86
2022/02/21 09:07:28;;;;;;;8.77;4.57;;;;;;;;;;5018258;28;20656;-86
2022/02/21 09:09:54;;;;;;;8.37;4.77;;;6.20;99.90;;;;;;5034095;28;20186;-88
2022/02/21 09:12:19;;;;;;;7.77;5.27;;;6.30;99.90;;;;;;5034126;28;20211;-83
2022/02/21 09:14:47;;;;;;;6.57;3.57;;;6.30;99.90;;;;;;5034641;28;20198;-82
2022/02/21 09:17:14;;;;;;;7.20;3.37;;;;;;;;;;5018410;28;20183;-83
2022/02/21 09:19:40;;;;;;;3.93;2.67;;;6.30;99.90;;;;;;5052281;28;20258;-84
2022/02/21 09:25:19;;;;;;;4.60;3.40;;;;;;;;;;5281273;22;20931;-86
2022/02/21 09:27:48;;;;;;;4.83;3.33;;;;;;;;;;5034842;28;20191;-84
2022/02/21 09:30:14;;;;;;;5.80;3.20;;;;;;;;;;5035030;28;20202;-84
2022/02/21 09:32:40;;;;;;;8.80;4.40;;;;;;;;;;5034152;28;20287;-85
2022/02/21 09:35:06;;;;;;;7.00;4.00;;;6.50;99.90;;;;;;5052817;28;20180;-86
2022/02/21 09:37:33;;;;;;;7.33;3.17;;;6.50;99.90;;;;;;5017834;28;20656;-85
2022/02/21 09:39:59;;;;;;;5.87;3.80;;;;;;;;;;5018085;28;20191;-84
2022/02/21 09:42:25;;;;;;;7.30;3.57;;;;;;;;;;5018351;28;20196;-84
2022/02/21 09:44:51;;;;;;;9.97;3.60;;;6.70;99.90;;;;;;5052120;28;20180;-84
2022/02/21 09:47:18;;;;;;;6.07;3.57;;;6.70;99.90;;;;;;5034196;28;20184;-86
2022/02/21 09:49:44;;;;;;;5.67;3.00;;;;;;;;;;5053636;28;20175;-84
2022/02/21 09:52:10;;;;;;;4.67;2.87;;;;;;;;;;5021806;28;20286;-83
2022/02/21 09:54:39;;;;;;;11.30;3.77;;;;;;;;;;5038261;28;20219;-86
2022/02/21 09:57:05;;;;;;;6.33;4.03;;;;;;;;;;5022223;28;20187;-83
2022/02/21 09:59:31;;;;;;;5.03;3.27;;;;;;;;;;5056057;28;20275;-85
2022/02/21 10:01:57;;;;;;;4.73;2.93;;;7.00;99.90;;;;;;5021758;28;20206;-85
2022/02/21 10:04:24;;;;;;;6.17;3.43;;;7.00;99.90;;;;;;5055862;28;20628;-84
2022/02/21 10:06:52;;;;;;;7.37;3.00;;;7.00;99.90;;;;;;5037850;28;20198;-85
2022/02/21 10:09:18;;;;;;;4.13;3.33;;;;;;;;;;5038756;28;20236;-84
2022/02/21 10:11:46;;;;;;;4.83;3.10;;;7.00;99.90;;;;;;5054964;28;20706;-84
2022/02/21 10:14:23;;;;;;;5.10;2.97;;;6.90;99.90;;;;;;5037195;28;20274;-84
2022/02/21 10:17:00;;;;;;;3.80;2.50;;;7.00;99.90;;;;;;5037968;28;20176;-85
2022/02/21 10:19:27;;;;;;;3.47;2.43;;;7.10;99.90;;;;;;5039345;28;20183;-84
2022/02/21 10:22:02;;;;;;;3.93;2.90;;;7.00;99.90;;;;;;5037985;28;20179;-84
2022/02/21 10:24:44;;;;;;;4.63;3.10;;;7.10;99.90;;;;;;5038210;28;20691;-84
2022/02/21 10:27:19;;;;;;;5.30;3.37;;;7.20;99.90;;;;;;5038116;28;20187;-86
2022/02/21 10:29:52;;;;;;;5.83;3.53;;;7.30;99.90;;;;;;5056143;28;20179;-86
2022/02/21 10:32:23;;;;;;;7.67;4.30;;;7.30;99.90;;;;;;5039204;28;20288;-86
2022/02/21 10:34:50;;;;;;;5.73;3.90;;;7.30;99.90;;;;;;5023968;28;20279;-85
2022/02/21 10:37:22;;;;;;;5.30;2.87;;;7.30;99.90;;;;;;5042854;28;20186;-86
2022/02/21 10:40:07;;;;;;;4.17;2.87;;;7.30;99.90;;;;;;5042925;28;20176;-87
2022/02/21 10:42:33;;;;;;;7.30;4.10;;;;;;;;;;5059958;28;20231;-84
2022/02/21 10:45:14;;;;;;;4.33;2.53;;;7.40;99.90;;;;;;5060591;28;20172;-87
2022/02/21 10:47:58;;;;;;;5.73;3.20;;;7.40;99.90;;;;;;5062882;28;20223;-88
2022/02/21 10:50:23;;;;;;;5.53;3.43;;;7.40;99.90;;;;;;5062744;28;20172;-85
2022/02/21 10:52:49;;;;;;;4.63;3.30;;;7.40;99.90;;;;;;5029728;28;20219;-85
2022/02/21 10:55:15;;;;;;;4.57;3.23;;;;;;;;;;5045758;28;20188;-86
2022/02/21 10:57:47;;;;;;;4.73;2.73;;;7.60;99.90;;;;;;5046049;28;20255;-91
2022/02/21 11:00:13;;;;;;;5.27;3.10;;;7.70;99.90;;;;;;5059093;28;20176;-88
2022/02/21 11:02:41;;;;;;;7.13;3.97;;;7.50;99.90;;;;;;5061354;28;20176;-91
2022/02/21 11:05:11;;;;;;;5.37;3.63;;;7.50;99.90;;;;;;5061964;28;20170;-88
2022/02/21 11:07:41;;;;;;;4.20;3.27;;;7.60;99.90;;;;;;5074096;28;20203;-86
2022/02/21 11:10:08;;;;;;;4.53;2.83;;;7.70;99.90;;;;;;5040629;28;20192;-85
2022/02/21 11:12:39;;;;;;;6.27;3.90;;;7.60;99.90;;;;;;5038269;28;20223;-87
2022/02/21 11:15:08;;;;;;;6.47;4.07;;;7.50;99.90;;;;;;5056853;28;20190;-86
2022/02/21 11:17:37;;;;;;;5.17;3.53;;;7.60;99.90;;;;;;5038580;28;20175;-85
2022/02/21 11:20:06;;;;;;;7.43;3.77;;;7.70;99.90;;;;;;5039069;28;20262;-87
2022/02/21 11:22:33;;;;;;;5.90;3.57;;;7.70;99.90;;;;;;5059304;28;20628;-86
2022/02/21 11:25:29;;;;;;;8.53;4.53;;;7.80;99.90;;;;;;5005592;28;20564;-86
2022/02/21 11:28:08;;;;;;;9.03;4.10;;;7.90;99.90;;;;;;4998348;28;20632;-86
2022/02/21 11:30:35;;;;;;;7.23;4.47;;;7.90;99.90;;;;;;5057417;28;20179;-85
2022/02/21 11:33:08;;;;;;;6.17;3.80;;;8.00;99.90;;;;;;5030156;28;20208;-84
2022/02/21 11:35:44;;;;;;;8.37;4.70;;;8.00;99.90;;;;;;5055345;28;20255;-85
2022/02/21 11:38:18;;;;;;;5.77;4.43;;;7.90;99.90;;;;;;5036959;28;20186;-85
2022/02/21 11:40:54;;;;;;;11.37;5.47;;;7.90;99.90;;;;;;5049093;28;20178;-86
2022/02/21 11:43:36;;;;;;;7.20;4.63;;;7.90;99.90;;;;;;5054042;28;20233;-85
2022/02/21 11:46:11;;;;;;;6.70;4.10;;;7.90;99.90;;;;;;5026574;28;20647;-84
2022/02/21 11:48:57;;;;;;;7.73;4.60;;;7.90;99.90;;;;;;5035747;28;20620;-85
2022/02/21 11:51:30;;;;;;;6.17;3.90;;;8.00;99.90;;;;;;5052637;28;20243;-85
2022/02/21 11:54:16;;;;;;;5.73;4.17;;;8.00;99.90;;;;;;5036353;28;20211;-85
2022/02/21 11:57:06;;;;;;;8.67;3.90;;;8.00;99.90;;;;;;5036072;28;20272;-85
2022/02/21 11:59:35;;;;;;;5.37;3.93;;;;;;;;;;5036801;28;20215;-84
2022/02/21 12:02:12;;;;;;;8.70;5.13;;;8.00;99.90;;;;;;5036326;28;20270;-86
2022/02/21 12:04:57;;;;;;;5.60;4.20;;;8.30;99.90;;;;;;5054321;28;20214;-86
2022/02/21 12:07:36;;;;;;;7.17;4.43;;;8.10;99.90;;;;;;5036525;28;20233;-83
2022/02/21 12:10:24;;;;;;;5.57;3.87;;;8.10;99.90;;;;;;5036209;28;20175;-84
2022/02/21 12:12:57;;;;;;;7.00;4.37;;;8.10;99.90;;;;;;5053825;28;20242;-85
2022/02/21 12:15:27;;;;;;;7.20;3.93;;;8.10;99.90;;;;;;5036348;28;20558;-84
2022/02/21 12:18:07;;;;;;;5.47;3.80;;;8.00;99.90;;;;;;5036448;28;20221;-84
2022/02/21 12:20:33;;;;;;;11.60;5.57;;;7.90;99.90;;;;;;5036465;28;20183;-84
2022/02/21 12:23:05;;;;;;;10.47;5.63;;;7.80;99.90;;;;;;5036445;28;20180;-88
2022/02/21 12:25:39;;;;;;;6.23;3.80;;;7.30;99.90;;;;;;5036466;28;20240;-84
2022/02/21 12:28:14;;;;;;;3.80;1.60;;;6.90;99.90;;;;;;5036596;28;20297;-84
2022/02/21 12:30:43;;;;;;;1.13;1.03;;;6.50;99.90;;;;;;5036780;28;20180;-85
2022/02/21 12:33:10;;;;;;;3.93;1.60;;;6.30;99.90;;;;;;5036797;28;20208;-84
2022/02/21 12:35:53;;;;;;;2.43;1.70;;;6.30;99.90;;;;;;5054226;28;20198;-84
2022/02/21 12:38:19;;;;;;;3.40;1.33;;;;;;;;;;5054004;28;20175;-84
2022/02/21 12:41:02;;;;;;;3.97;1.83;;;6.10;99.90;;;;;;5036237;28;20298;-87
2022/02/21 12:43:54;;;;;;;7.73;2.17;;;5.90;99.90;;;;;;5020850;28;20649;-84
2022/02/21 12:46:22;;;;;;;6.03;2.30;;;5.60;99.90;;;;;;5036391;28;20529;-83
2022/02/21 12:48:49;;;;;;;3.40;1.90;;;;;;;;;;5036257;28;20176;-84
2022/02/21 12:51:27;;;;;;;5.67;1.83;;;5.50;99.90;;;;;;5036274;28;20267;-85
2022/02/21 12:54:11;;;;;;;5.23;1.50;;;5.80;99.90;;;;;;5036119;28;20272;-84
2022/02/21 12:57:02;;;;;;;2.57;1.50;;;5.50;99.90;;;;;;5020097;28;20176;-83
2022/02/21 12:59:47;;;;;;;4.30;2.30;;;5.40;99.90;;;;;;5024802;28;20675;-83
2022/02/21 13:02:13;;;;;;;2.67;1.90;;;;;;;;;;5005349;28;20188;-84
2022/02/21 13:04:39;;;;;;;4.47;1.97;;;;;;;;;;5053642;28;20180;-85
2022/02/21 13:07:13;;;;;;;6.33;1.90;;;5.40;99.90;;;;;;5036004;28;20188;-84
2022/02/21 13:09:39;;;;;;;2.30;1.60;;;;;;;;;;5036274;28;20187;-84
2022/02/21 13:12:08;;;;;;;4.93;2.30;;;;;;;;;;5035305;28;20350;-82
2022/02/21 13:14:38;;;;;;;4.77;2.10;;;5.40;99.90;;;;;;5019718;28;20640;-84
2022/02/21 13:17:13;;;;;;;3.40;1.53;;;5.60;99.90;;;;;;5035570;28;20263;-85
2022/02/21 13:19:44;;;;;;;3.87;2.17;;;5.50;99.90;;;;;;5035751;28;20171;-83
2022/02/21 13:22:10;;;;;;;3.03;2.00;;;;;;;;;;5035320;28;20183;-84
2022/02/21 13:24:38;;;;;;;2.60;1.80;;;5.60;99.90;;;;;;5034679;28;20576;-83